Little Ferry, New Jersey
Current Conditions -  °F | °C
As of 3:51 AM on Thursday 18 Dec 2014 (Local Time) from KTEB Reporting Station
Overcast Overcast  
Wind Chill: 33°   Ceiling: 9000
Heat Index: 39°   Visibility: 9mi
Dew Point: 24°   Wind: 9mph
Humidity: 55%   Direction: 320°NW
Pressure: 29.91"   Gusts: 17mph
Location:  40.85°N, 74.04°W
Report Text: KTEB 180851Z 32008G15KT 9SM OVC090 04/M04 A2991 RMK AO2 SNE49 SLP129 P0000 60000 T00391044 51013
Loading
Personal Weather Stations






























Interactive Weather Map New forecast layout! Learn more

10-Day Weather Forecast

Advertisements
Track Severe Weather on mobile